sensor_id;sensor_type;location;lat;lon;timestamp;temperature;humidity
11836;DHT22;5977;51.972;7.640;2023-02-02T00:02:04;16.60;72.00
11836;DHT22;5977;51.972;7.640;2023-02-02T00:04:34;16.60;72.40
11836;DHT22;5977;51.972;7.640;2023-02-02T00:07:03;16.50;72.20
11836;DHT22;5977;51.972;7.640;2023-02-02T00:09:31;16.50;73.10
11836;DHT22;5977;51.972;7.640;2023-02-02T00:12:00;16.40;72.80
11836;DHT22;5977;51.972;7.640;2023-02-02T00:14:28;16.30;72.30
11836;DHT22;5977;51.972;7.640;2023-02-02T00:16:57;16.40;73.30
11836;DHT22;5977;51.972;7.640;2023-02-02T00:19:26;16.40;72.70
11836;DHT22;5977;51.972;7.640;2023-02-02T00:21:55;16.30;72.60
11836;DHT22;5977;51.972;7.640;2023-02-02T00:24:24;16.20;72.80
11836;DHT22;5977;51.972;7.640;2023-02-02T00:26:54;16.20;73.20
11836;DHT22;5977;51.972;7.640;2023-02-02T00:29:23;16.30;72.80
11836;DHT22;5977;51.972;7.640;2023-02-02T00:31:52;16.10;73.10
11836;DHT22;5977;51.972;7.640;2023-02-02T00:34:22;16.30;73.60
11836;DHT22;5977;51.972;7.640;2023-02-02T00:36:50;16.40;74.20
11836;DHT22;5977;51.972;7.640;2023-02-02T00:39:21;16.30;73.50
11836;DHT22;5977;51.972;7.640;2023-02-02T00:41:51;16.30;74.30
11836;DHT22;5977;51.972;7.640;2023-02-02T00:44:19;16.30;74.40
11836;DHT22;5977;51.972;7.640;2023-02-02T00:47:04;16.30;74.40
11836;DHT22;5977;51.972;7.640;2023-02-02T00:49:33;16.40;75.20
11836;DHT22;5977;51.972;7.640;2023-02-02T00:52:01;16.30;75.40
11836;DHT22;5977;51.972;7.640;2023-02-02T00:54:29;16.40;75.70
11836;DHT22;5977;51.972;7.640;2023-02-02T00:56:57;16.50;75.40
11836;DHT22;5977;51.972;7.640;2023-02-02T00:59:25;16.50;74.90
11836;DHT22;5977;51.972;7.640;2023-02-02T01:01:53;16.40;74.90
11836;DHT22;5977;51.972;7.640;2023-02-02T01:04:21;16.40;74.80
11836;DHT22;5977;51.972;7.640;2023-02-02T01:06:50;16.40;74.10
11836;DHT22;5977;51.972;7.640;2023-02-02T01:09:18;16.40;74.50
11836;DHT22;5977;51.972;7.640;2023-02-02T01:11:46;16.40;73.70
11836;DHT22;5977;51.972;7.640;2023-02-02T01:14:14;16.40;74.80
11836;DHT22;5977;51.972;7.640;2023-02-02T01:16:42;16.40;73.30
11836;DHT22;5977;51.972;7.640;2023-02-02T01:19:11;16.30;73.60
11836;DHT22;5977;51.972;7.640;2023-02-02T01:21:40;16.40;73.80
11836;DHT22;5977;51.972;7.640;2023-02-02T01:24:09;16.40;73.60
11836;DHT22;5977;51.972;7.640;2023-02-02T01:26:37;16.40;74.20
11836;DHT22;5977;51.972;7.640;2023-02-02T01:29:05;16.40;73.50
11836;DHT22;5977;51.972;7.640;2023-02-02T01:31:33;16.40;73.40
11836;DHT22;5977;51.972;7.640;2023-02-02T01:34:01;16.30;73.50
11836;DHT22;5977;51.972;7.640;2023-02-02T01:36:29;16.30;73.50
11836;DHT22;5977;51.972;7.640;2023-02-02T01:38:57;16.40;73.20
11836;DHT22;5977;51.972;7.640;2023-02-02T01:41:26;16.30;73.00
11836;DHT22;5977;51.972;7.640;2023-02-02T01:43:56;16.30;73.50
11836;DHT22;5977;51.972;7.640;2023-02-02T01:46:29;16.40;73.20
11836;DHT22;5977;51.972;7.640;2023-02-02T01:49:00;16.30;72.80
11836;DHT22;5977;51.972;7.640;2023-02-02T01:51:33;16.20;73.00
11836;DHT22;5977;51.972;7.640;2023-02-02T01:54:02;16.20;72.70
11836;DHT22;5977;51.972;7.640;2023-02-02T01:56:37;16.30;73.50
11836;DHT22;5977;51.972;7.640;2023-02-02T01:59:06;16.40;73.20
11836;DHT22;5977;51.972;7.640;2023-02-02T02:01:34;16.40;73.00
11836;DHT22;5977;51.972;7.640;2023-02-02T02:04:02;16.40;73.20
11836;DHT22;5977;51.972;7.640;2023-02-02T02:06:30;16.40;73.00
11836;DHT22;5977;51.972;7.640;2023-02-02T02:09:03;16.30;72.90
11836;DHT22;5977;51.972;7.640;2023-02-02T02:11:34;16.30;73.10
11836;DHT22;5977;51.972;7.640;2023-02-02T02:14:05;16.40;73.20
11836;DHT22;5977;51.972;7.640;2023-02-02T02:17:00;16.40;72.90
11836;DHT22;5977;51.972;7.640;2023-02-02T02:19:52;16.40;72.30
11836;DHT22;5977;51.972;7.640;2023-02-02T02:26:23;16.40;72.80
11836;DHT22;5977;51.972;7.640;2023-02-02T02:29:24;16.40;72.90
11836;DHT22;5977;51.972;7.640;2023-02-02T02:32:18;16.50;72.80
11836;DHT22;5977;51.972;7.640;2023-02-02T02:34:56;16.40;72.20
11836;DHT22;5977;51.972;7.640;2023-02-02T02:37:37;16.50;72.90
11836;DHT22;5977;51.972;7.640;2023-02-02T02:40:12;16.50;73.20
11836;DHT22;5977;51.972;7.640;2023-02-02T02:42:44;16.50;72.80
11836;DHT22;5977;51.972;7.640;2023-02-02T02:45:13;16.50;72.90
11836;DHT22;5977;51.972;7.640;2023-02-02T02:47:44;16.40;73.20
11836;DHT22;5977;51.972;7.640;2023-02-02T02:50:15;16.40;73.40
11836;DHT22;5977;51.972;7.640;2023-02-02T02:52:44;16.40;73.80
11836;DHT22;5977;51.972;7.640;2023-02-02T02:55:13;16.40;73.80
11836;DHT22;5977;51.972;7.640;2023-02-02T02:57:56;16.40;73.80
11836;DHT22;5977;51.972;7.640;2023-02-02T03:00:41;16.40;73.70
11836;DHT22;5977;51.972;7.640;2023-02-02T03:03:18;16.50;73.50
11836;DHT22;5977;51.972;7.640;2023-02-02T03:05:53;16.50;73.30
11836;DHT22;5977;51.972;7.640;2023-02-02T03:08:27;16.50;73.00
11836;DHT22;5977;51.972;7.640;2023-02-02T03:10:59;16.50;73.50
11836;DHT22;5977;51.972;7.640;2023-02-02T03:13:28;16.50;73.30
11836;DHT22;5977;51.972;7.640;2023-02-02T03:15:57;16.40;73.80
11836;DHT22;5977;51.972;7.640;2023-02-02T03:18:29;16.40;72.90
11836;DHT22;5977;51.972;7.640;2023-02-02T03:20:57;16.40;72.70
11836;DHT22;5977;51.972;7.640;2023-02-02T03:23:25;16.40;73.50
11836;DHT22;5977;51.972;7.640;2023-02-02T03:25:54;16.30;73.80
11836;DHT22;5977;51.972;7.640;2023-02-02T03:28:22;16.40;73.90
11836;DHT22;5977;51.972;7.640;2023-02-02T03:30:51;16.40;73.50
11836;DHT22;5977;51.972;7.640;2023-02-02T03:33:20;16.50;73.70
11836;DHT22;5977;51.972;7.640;2023-02-02T03:35:49;16.40;73.40
11836;DHT22;5977;51.972;7.640;2023-02-02T03:38:17;16.50;73.70
11836;DHT22;5977;51.972;7.640;2023-02-02T03:40:45;16.40;73.40
11836;DHT22;5977;51.972;7.640;2023-02-02T03:43:17;16.40;73.10
11836;DHT22;5977;51.972;7.640;2023-02-02T03:45:46;16.50;73.20
11836;DHT22;5977;51.972;7.640;2023-02-02T03:48:13;16.50;73.30
11836;DHT22;5977;51.972;7.640;2023-02-02T03:50:41;16.50;73.30
11836;DHT22;5977;51.972;7.640;2023-02-02T03:53:10;16.50;73.10
11836;DHT22;5977;51.972;7.640;2023-02-02T03:55:38;16.40;73.20
11836;DHT22;5977;51.972;7.640;2023-02-02T03:58:07;16.40;72.90
11836;DHT22;5977;51.972;7.640;2023-02-02T04:00:35;16.40;72.70
11836;DHT22;5977;51.972;7.640;2023-02-02T04:03:03;16.40;73.10
11836;DHT22;5977;51.972;7.640;2023-02-02T04:05:31;16.40;73.40
11836;DHT22;5977;51.972;7.640;2023-02-02T04:07:59;16.40;73.50
11836;DHT22;5977;51.972;7.640;2023-02-02T04:10:28;16.40;73.50
11836;DHT22;5977;51.972;7.640;2023-02-02T04:12:56;16.20;73.00
11836;DHT22;5977;51.972;7.640;2023-02-02T04:15:24;16.10;73.30
11836;DHT22;5977;51.972;7.640;2023-02-02T04:17:52;16.10;73.80
11836;DHT22;5977;51.972;7.640;2023-02-02T04:20:20;16.10;73.80
11836;DHT22;5977;51.972;7.640;2023-02-02T04:22:48;16.10;73.80
11836;DHT22;5977;51.972;7.640;2023-02-02T04:25:16;16.00;74.10
11836;DHT22;5977;51.972;7.640;2023-02-02T04:27:45;15.60;72.90
11836;DHT22;5977;51.972;7.640;2023-02-02T04:30:13;15.60;74.80
11836;DHT22;5977;51.972;7.640;2023-02-02T04:32:41;15.80;74.60
11836;DHT22;5977;51.972;7.640;2023-02-02T04:35:09;15.90;74.60
11836;DHT22;5977;51.972;7.640;2023-02-02T04:37:37;16.00;74.40
11836;DHT22;5977;51.972;7.640;2023-02-02T04:40:06;15.90;74.10
11836;DHT22;5977;51.972;7.640;2023-02-02T04:42:34;15.90;74.50
11836;DHT22;5977;51.972;7.640;2023-02-02T04:45:04;16.00;74.70
11836;DHT22;5977;51.972;7.640;2023-02-02T04:47:32;16.00;74.20
11836;DHT22;5977;51.972;7.640;2023-02-02T04:49:59;16.00;74.20
11836;DHT22;5977;51.972;7.640;2023-02-02T04:52:28;15.90;74.10
11836;DHT22;5977;51.972;7.640;2023-02-02T04:54:55;15.90;74.40
11836;DHT22;5977;51.972;7.640;2023-02-02T04:57:23;15.90;73.90
11836;DHT22;5977;51.972;7.640;2023-02-02T04:59:51;15.90;74.60
11836;DHT22;5977;51.972;7.640;2023-02-02T05:02:20;15.90;74.60
11836;DHT22;5977;51.972;7.640;2023-02-02T05:04:48;15.90;74.70
11836;DHT22;5977;51.972;7.640;2023-02-02T05:07:16;15.80;74.20
11836;DHT22;5977;51.972;7.640;2023-02-02T05:09:44;15.90;74.40
11836;DHT22;5977;51.972;7.640;2023-02-02T05:12:12;15.90;74.10
11836;DHT22;5977;51.972;7.640;2023-02-02T05:14:40;15.90;74.50
11836;DHT22;5977;51.972;7.640;2023-02-02T05:17:07;15.90;74.50
11836;DHT22;5977;51.972;7.640;2023-02-02T05:19:37;15.90;74.10
11836;DHT22;5977;51.972;7.640;2023-02-02T05:22:04;15.90;74.60
11836;DHT22;5977;51.972;7.640;2023-02-02T05:24:32;15.90;74.50
11836;DHT22;5977;51.972;7.640;2023-02-02T05:27:00;15.90;74.60
11836;DHT22;5977;51.972;7.640;2023-02-02T05:29:29;15.90;74.60
11836;DHT22;5977;51.972;7.640;2023-02-02T05:31:58;15.90;74.80
11836;DHT22;5977;51.972;7.640;2023-02-02T05:34:26;15.80;74.80
11836;DHT22;5977;51.972;7.640;2023-02-02T05:36:55;15.80;74.90
11836;DHT22;5977;51.972;7.640;2023-02-02T05:39:23;15.90;74.90
11836;DHT22;5977;51.972;7.640;2023-02-02T05:41:51;15.90;74.80
11836;DHT22;5977;51.972;7.640;2023-02-02T05:44:19;15.90;74.70
11836;DHT22;5977;51.972;7.640;2023-02-02T05:46:47;15.90;74.60
11836;DHT22;5977;51.972;7.640;2023-02-02T05:49:15;15.90;74.80
11836;DHT22;5977;51.972;7.640;2023-02-02T05:51:45;15.90;75.10
11836;DHT22;5977;51.972;7.640;2023-02-02T05:54:15;15.60;74.80
11836;DHT22;5977;51.972;7.640;2023-02-02T05:56:46;15.90;75.50
11836;DHT22;5977;51.972;7.640;2023-02-02T05:59:14;15.90;75.10
11836;DHT22;5977;51.972;7.640;2023-02-02T06:01:43;15.90;74.90
11836;DHT22;5977;51.972;7.640;2023-02-02T06:04:11;16.00;75.00
11836;DHT22;5977;51.972;7.640;2023-02-02T06:06:39;16.00;74.50
11836;DHT22;5977;51.972;7.640;2023-02-02T06:09:08;15.90;74.90
11836;DHT22;5977;51.972;7.640;2023-02-02T06:11:37;16.00;74.80
11836;DHT22;5977;51.972;7.640;2023-02-02T06:14:05;16.10;75.10
11836;DHT22;5977;51.972;7.640;2023-02-02T06:16:34;15.90;74.80
11836;DHT22;5977;51.972;7.640;2023-02-02T06:19:02;16.00;74.80
11836;DHT22;5977;51.972;7.640;2023-02-02T06:21:30;15.90;75.30
11836;DHT22;5977;51.972;7.640;2023-02-02T06:23:58;16.00;75.40
11836;DHT22;5977;51.972;7.640;2023-02-02T06:26:27;16.00;74.70
11836;DHT22;5977;51.972;7.640;2023-02-02T06:28:57;16.00;75.00
11836;DHT22;5977;51.972;7.640;2023-02-02T06:31:24;15.90;74.40
11836;DHT22;5977;51.972;7.640;2023-02-02T06:33:54;15.90;74.30
11836;DHT22;5977;51.972;7.640;2023-02-02T06:36:23;15.90;74.20
11836;DHT22;5977;51.972;7.640;2023-02-02T06:38:52;15.90;74.40
11836;DHT22;5977;51.972;7.640;2023-02-02T06:41:20;15.80;74.30
11836;DHT22;5977;51.972;7.640;2023-02-02T06:43:49;15.90;74.80
11836;DHT22;5977;51.972;7.640;2023-02-02T06:46:18;15.90;74.60
11836;DHT22;5977;51.972;7.640;2023-02-02T06:48:46;15.90;74.40
11836;DHT22;5977;51.972;7.640;2023-02-02T06:51:14;16.00;74.70
11836;DHT22;5977;51.972;7.640;2023-02-02T06:53:42;15.90;74.40
11836;DHT22;5977;51.972;7.640;2023-02-02T06:56:11;15.90;74.80
11836;DHT22;5977;51.972;7.640;2023-02-02T06:58:39;15.90;75.10
11836;DHT22;5977;51.972;7.640;2023-02-02T07:01:09;15.90;75.30
11836;DHT22;5977;51.972;7.640;2023-02-02T07:03:39;15.90;74.90
11836;DHT22;5977;51.972;7.640;2023-02-02T07:06:12;15.80;74.60
11836;DHT22;5977;51.972;7.640;2023-02-02T07:08:40;15.80;75.10
11836;DHT22;5977;51.972;7.640;2023-02-02T07:11:08;15.90;74.70
11836;DHT22;5977;51.972;7.640;2023-02-02T07:13:43;15.90;75.90
11836;DHT22;5977;51.972;7.640;2023-02-02T07:16:12;15.90;75.50
11836;DHT22;5977;51.972;7.640;2023-02-02T07:18:42;16.10;75.20
11836;DHT22;5977;51.972;7.640;2023-02-02T07:21:16;16.20;75.20
11836;DHT22;5977;51.972;7.640;2023-02-02T07:23:44;16.20;74.80
11836;DHT22;5977;51.972;7.640;2023-02-02T07:26:16;16.30;74.60
11836;DHT22;5977;51.972;7.640;2023-02-02T07:28:45;16.30;74.20
11836;DHT22;5977;51.972;7.640;2023-02-02T07:31:15;16.20;74.10
11836;DHT22;5977;51.972;7.640;2023-02-02T07:33:46;16.30;74.40
11836;DHT22;5977;51.972;7.640;2023-02-02T07:36:15;16.30;74.30
11836;DHT22;5977;51.972;7.640;2023-02-02T07:38:44;16.30;74.20
11836;DHT22;5977;51.972;7.640;2023-02-02T07:41:13;16.10;74.00
11836;DHT22;5977;51.972;7.640;2023-02-02T07:43:42;16.00;74.20
11836;DHT22;5977;51.972;7.640;2023-02-02T07:46:09;16.00;74.70
11836;DHT22;5977;51.972;7.640;2023-02-02T07:48:39;16.10;74.20
11836;DHT22;5977;51.972;7.640;2023-02-02T07:51:11;16.00;74.50
11836;DHT22;5977;51.972;7.640;2023-02-02T07:53:42;16.00;74.60
11836;DHT22;5977;51.972;7.640;2023-02-02T07:56:12;16.00;74.20
11836;DHT22;5977;51.972;7.640;2023-02-02T07:58:41;15.90;74.30
11836;DHT22;5977;51.972;7.640;2023-02-02T08:01:11;16.00;74.20
11836;DHT22;5977;51.972;7.640;2023-02-02T08:03:39;16.10;74.40
11836;DHT22;5977;51.972;7.640;2023-02-02T08:06:12;15.90;74.30
11836;DHT22;5977;51.972;7.640;2023-02-02T08:08:40;16.00;74.80
11836;DHT22;5977;51.972;7.640;2023-02-02T08:11:10;16.00;74.80
11836;DHT22;5977;51.972;7.640;2023-02-02T08:13:38;16.20;74.50
11836;DHT22;5977;51.972;7.640;2023-02-02T08:16:06;16.10;73.60
11836;DHT22;5977;51.972;7.640;2023-02-02T08:18:35;16.00;73.40
11836;DHT22;5977;51.972;7.640;2023-02-02T08:21:05;15.80;72.50
11836;DHT22;5977;51.972;7.640;2023-02-02T08:23:37;15.70;73.80
11836;DHT22;5977;51.972;7.640;2023-02-02T08:26:07;15.80;73.50
11836;DHT22;5977;51.972;7.640;2023-02-02T08:28:35;15.70;72.10
11836;DHT22;5977;51.972;7.640;2023-02-02T08:31:07;15.30;72.30
11836;DHT22;5977;51.972;7.640;2023-02-02T08:33:36;15.00;74.00
11836;DHT22;5977;51.972;7.640;2023-02-02T08:36:08;15.00;74.00
11836;DHT22;5977;51.972;7.640;2023-02-02T08:38:39;14.90;74.10
11836;DHT22;5977;51.972;7.640;2023-02-02T08:41:09;14.90;74.10
11836;DHT22;5977;51.972;7.640;2023-02-02T08:43:38;14.90;74.40
11836;DHT22;5977;51.972;7.640;2023-02-02T08:46:08;15.00;74.40
11836;DHT22;5977;51.972;7.640;2023-02-02T08:48:37;15.10;73.90
11836;DHT22;5977;51.972;7.640;2023-02-02T08:51:06;15.00;73.70
11836;DHT22;5977;51.972;7.640;2023-02-02T08:53:36;15.00;73.50
11836;DHT22;5977;51.972;7.640;2023-02-02T08:56:08;15.10;73.40
11836;DHT22;5977;51.972;7.640;2023-02-02T08:58:37;15.00;73.80
11836;DHT22;5977;51.972;7.640;2023-02-02T09:01:07;15.00;73.90
11836;DHT22;5977;51.972;7.640;2023-02-02T09:03:36;15.00;73.70
11836;DHT22;5977;51.972;7.640;2023-02-02T09:06:06;14.80;73.50
11836;DHT22;5977;51.972;7.640;2023-02-02T09:08:35;14.80;73.90
11836;DHT22;5977;51.972;7.640;2023-02-02T09:11:06;14.70;73.90
11836;DHT22;5977;51.972;7.640;2023-02-02T09:13:37;14.70;74.00
11836;DHT22;5977;51.972;7.640;2023-02-02T09:16:08;14.80;74.10
11836;DHT22;5977;51.972;7.640;2023-02-02T09:18:37;14.70;74.00
11836;DHT22;5977;51.972;7.640;2023-02-02T09:21:09;14.80;74.20
11836;DHT22;5977;51.972;7.640;2023-02-02T09:23:39;14.70;74.10
11836;DHT22;5977;51.972;7.640;2023-02-02T09:26:13;14.80;74.00
11836;DHT22;5977;51.972;7.640;2023-02-02T09:28:43;14.80;74.00
11836;DHT22;5977;51.972;7.640;2023-02-02T09:31:14;14.80;74.00
11836;DHT22;5977;51.972;7.640;2023-02-02T09:33:45;14.80;74.00
11836;DHT22;5977;51.972;7.640;2023-02-02T09:36:14;14.80;73.90
11836;DHT22;5977;51.972;7.640;2023-02-02T09:38:43;14.80;73.80
11836;DHT22;5977;51.972;7.640;2023-02-02T09:41:38;14.80;73.80
11836;DHT22;5977;51.972;7.640;2023-02-02T09:44:17;14.80;74.00
11836;DHT22;5977;51.972;7.640;2023-02-02T09:46:56;14.80;73.80
11836;DHT22;5977;51.972;7.640;2023-02-02T09:49:34;14.60;73.90
11836;DHT22;5977;51.972;7.640;2023-02-02T09:52:09;14.70;74.10
11836;DHT22;5977;51.972;7.640;2023-02-02T09:54:41;14.60;73.40
11836;DHT22;5977;51.972;7.640;2023-02-02T09:57:14;14.60;73.70
11836;DHT22;5977;51.972;7.640;2023-02-02T09:59:46;14.70;73.90
11836;DHT22;5977;51.972;7.640;2023-02-02T10:02:19;14.90;74.10
11836;DHT22;5977;51.972;7.640;2023-02-02T10:04:51;15.90;72.90
11836;DHT22;5977;51.972;7.640;2023-02-02T10:07:29;16.50;71.40
11836;DHT22;5977;51.972;7.640;2023-02-02T10:10:02;16.80;73.80
11836;DHT22;5977;51.972;7.640;2023-02-02T10:12:40;17.00;74.00
11836;DHT22;5977;51.972;7.640;2023-02-02T10:15:18;17.20;76.10
11836;DHT22;5977;51.972;7.640;2023-02-02T10:17:54;17.30;92.80
11836;DHT22;5977;51.972;7.640;2023-02-02T10:20:36;17.40;89.90
11836;DHT22;5977;51.972;7.640;2023-02-02T10:23:12;17.50;88.90
11836;DHT22;5977;51.972;7.640;2023-02-02T10:25:48;17.50;88.40
11836;DHT22;5977;51.972;7.640;2023-02-02T10:28:19;17.50;88.50
11836;DHT22;5977;51.972;7.640;2023-02-02T10:30:54;17.60;88.90
11836;DHT22;5977;51.972;7.640;2023-02-02T10:33:33;17.60;88.10
11836;DHT22;5977;51.972;7.640;2023-02-02T10:36:10;17.60;88.20
11836;DHT22;5977;51.972;7.640;2023-02-02T10:38:49;17.70;88.30
11836;DHT22;5977;51.972;7.640;2023-02-02T10:41:25;17.70;88.20
11836;DHT22;5977;51.972;7.640;2023-02-02T10:44:08;17.70;87.70
11836;DHT22;5977;51.972;7.640;2023-02-02T10:46:44;17.70;84.90
11836;DHT22;5977;51.972;7.640;2023-02-02T10:49:17;17.70;85.00
11836;DHT22;5977;51.972;7.640;2023-02-02T10:51:51;17.80;84.50
11836;DHT22;5977;51.972;7.640;2023-02-02T10:54:31;17.80;84.50
11836;DHT22;5977;51.972;7.640;2023-02-02T10:57:30;17.80;84.00
11836;DHT22;5977;51.972;7.640;2023-02-02T11:00:09;17.80;84.00
11836;DHT22;5977;51.972;7.640;2023-02-02T11:02:41;17.80;84.00
11836;DHT22;5977;51.972;7.640;2023-02-02T11:05:14;17.90;83.90
11836;DHT22;5977;51.972;7.640;2023-02-02T11:08:01;17.80;83.50
11836;DHT22;5977;51.972;7.640;2023-02-02T11:10:31;17.80;83.70
11836;DHT22;5977;51.972;7.640;2023-02-02T11:13:01;17.90;83.60
11836;DHT22;5977;51.972;7.640;2023-02-02T11:15:30;17.90;83.50
11836;DHT22;5977;51.972;7.640;2023-02-02T11:18:25;17.80;83.40
11836;DHT22;5977;51.972;7.640;2023-02-02T11:20:56;17.80;83.00
11836;DHT22;5977;51.972;7.640;2023-02-02T11:23:26;17.70;82.10
11836;DHT22;5977;51.972;7.640;2023-02-02T11:25:59;17.70;81.50
11836;DHT22;5977;51.972;7.640;2023-02-02T11:28:32;17.60;81.10
11836;DHT22;5977;51.972;7.640;2023-02-02T11:31:06;17.50;80.70
11836;DHT22;5977;51.972;7.640;2023-02-02T11:33:35;17.40;80.50
11836;DHT22;5977;51.972;7.640;2023-02-02T11:36:18;17.30;80.50
11836;DHT22;5977;51.972;7.640;2023-02-02T11:38:46;17.30;80.10
11836;DHT22;5977;51.972;7.640;2023-02-02T11:41:14;17.30;79.90
11836;DHT22;5977;51.972;7.640;2023-02-02T11:43:48;17.30;79.50
11836;DHT22;5977;51.972;7.640;2023-02-02T11:46:19;17.40;79.60
11836;DHT22;5977;51.972;7.640;2023-02-02T11:48:58;17.30;79.40
11836;DHT22;5977;51.972;7.640;2023-02-02T11:51:30;17.40;79.00
11836;DHT22;5977;51.972;7.640;2023-02-02T11:54:02;17.40;79.40
11836;DHT22;5977;51.972;7.640;2023-02-02T11:56:35;17.40;79.30
11836;DHT22;5977;51.972;7.640;2023-02-02T11:59:04;17.30;79.40
11836;DHT22;5977;51.972;7.640;2023-02-02T12:01:36;17.50;79.70
11836;DHT22;5977;51.972;7.640;2023-02-02T12:04:25;17.60;79.50
11836;DHT22;5977;51.972;7.640;2023-02-02T12:06:55;17.60;79.80
11836;DHT22;5977;51.972;7.640;2023-02-02T12:09:23;17.50;80.00
11836;DHT22;5977;51.972;7.640;2023-02-02T12:11:59;17.50;80.50
11836;DHT22;5977;51.972;7.640;2023-02-02T12:14:36;17.40;81.10
11836;DHT22;5977;51.972;7.640;2023-02-02T12:17:21;17.30;80.90
11836;DHT22;5977;51.972;7.640;2023-02-02T12:20:14;17.30;81.60
11836;DHT22;5977;51.972;7.640;2023-02-02T12:23:15;17.00;96.90
11836;DHT22;5977;51.972;7.640;2023-02-02T12:26:07;17.20;90.90
11836;DHT22;5977;51.972;7.640;2023-02-02T12:28:54;17.20;91.00
11836;DHT22;5977;51.972;7.640;2023-02-02T12:31:32;17.20;90.90
11836;DHT22;5977;51.972;7.640;2023-02-02T12:34:10;17.40;91.90
11836;DHT22;5977;51.972;7.640;2023-02-02T12:36:49;17.60;91.10
11836;DHT22;5977;51.972;7.640;2023-02-02T12:39:31;17.70;91.10
11836;DHT22;5977;51.972;7.640;2023-02-02T12:42:29;17.80;91.20
11836;DHT22;5977;51.972;7.640;2023-02-02T12:45:14;17.90;91.00
11836;DHT22;5977;51.972;7.640;2023-02-02T12:47:55;17.90;91.00
11836;DHT22;5977;51.972;7.640;2023-02-02T12:50:32;17.90;90.80
11836;DHT22;5977;51.972;7.640;2023-02-02T12:53:20;18.00;90.90
11836;DHT22;5977;51.972;7.640;2023-02-02T12:55:56;18.00;90.70
11836;DHT22;5977;51.972;7.640;2023-02-02T12:58:32;18.00;90.80
11836;DHT22;5977;51.972;7.640;2023-02-02T13:01:17;18.00;90.70
11836;DHT22;5977;51.972;7.640;2023-02-02T13:03:56;18.10;90.60
11836;DHT22;5977;51.972;7.640;2023-02-02T13:06:46;18.10;90.50
11836;DHT22;5977;51.972;7.640;2023-02-02T13:09:22;18.10;90.40
11836;DHT22;5977;51.972;7.640;2023-02-02T13:11:56;18.10;90.00
11836;DHT22;5977;51.972;7.640;2023-02-02T13:14:28;18.10;90.10
11836;DHT22;5977;51.972;7.640;2023-02-02T13:17:00;18.10;90.30
11836;DHT22;5977;51.972;7.640;2023-02-02T13:19:33;18.20;90.30
11836;DHT22;5977;51.972;7.640;2023-02-02T13:22:05;18.10;90.40
11836;DHT22;5977;51.972;7.640;2023-02-02T13:24:38;18.20;90.20
11836;DHT22;5977;51.972;7.640;2023-02-02T13:27:10;18.10;90.40
11836;DHT22;5977;51.972;7.640;2023-02-02T13:29:42;18.10;90.40
11836;DHT22;5977;51.972;7.640;2023-02-02T13:32:19;18.00;90.50
11836;DHT22;5977;51.972;7.640;2023-02-02T13:34:53;17.80;90.70
11836;DHT22;5977;51.972;7.640;2023-02-02T13:37:28;17.80;90.90
11836;DHT22;5977;51.972;7.640;2023-02-02T13:40:00;17.90;90.80
11836;DHT22;5977;51.972;7.640;2023-02-02T13:42:35;18.00;90.80
11836;DHT22;5977;51.972;7.640;2023-02-02T13:45:20;18.10;90.70
11836;DHT22;5977;51.972;7.640;2023-02-02T13:47:54;18.10;90.70
11836;DHT22;5977;51.972;7.640;2023-02-02T13:50:26;18.10;90.90
11836;DHT22;5977;51.972;7.640;2023-02-02T13:53:11;17.80;90.80
11836;DHT22;5977;51.972;7.640;2023-02-02T13:56:06;17.80;90.60
11836;DHT22;5977;51.972;7.640;2023-02-02T13:58:47;17.90;90.70
11836;DHT22;5977;51.972;7.640;2023-02-02T14:01:20;18.00;91.00
11836;DHT22;5977;51.972;7.640;2023-02-02T14:03:51;17.90;91.30
11836;DHT22;5977;51.972;7.640;2023-02-02T14:06:21;17.80;90.80
11836;DHT22;5977;51.972;7.640;2023-02-02T14:08:55;17.70;90.80
11836;DHT22;5977;51.972;7.640;2023-02-02T14:11:26;17.60;90.80
11836;DHT22;5977;51.972;7.640;2023-02-02T14:13:58;17.50;90.80
11836;DHT22;5977;51.972;7.640;2023-02-02T14:16:49;17.50;90.90
11836;DHT22;5977;51.972;7.640;2023-02-02T14:19:47;17.50;90.90
11836;DHT22;5977;51.972;7.640;2023-02-02T14:22:19;17.70;90.40
11836;DHT22;5977;51.972;7.640;2023-02-02T14:24:49;17.80;91.00
11836;DHT22;5977;51.972;7.640;2023-02-02T14:27:53;17.90;91.00
11836;DHT22;5977;51.972;7.640;2023-02-02T14:30:33;18.00;90.90
11836;DHT22;5977;51.972;7.640;2023-02-02T14:33:25;18.00;90.60
11836;DHT22;5977;51.972;7.640;2023-02-02T14:35:57;18.00;91.00
11836;DHT22;5977;51.972;7.640;2023-02-02T14:38:50;18.10;91.00
11836;DHT22;5977;51.972;7.640;2023-02-02T14:41:30;18.10;91.00
11836;DHT22;5977;51.972;7.640;2023-02-02T14:44:19;18.00;86.90
11836;DHT22;5977;51.972;7.640;2023-02-02T14:46:47;17.90;90.80
11836;DHT22;5977;51.972;7.640;2023-02-02T14:49:18;17.90;91.20
11836;DHT22;5977;51.972;7.640;2023-02-02T14:51:58;17.80;91.20
11836;DHT22;5977;51.972;7.640;2023-02-02T14:54:30;17.90;91.20
11836;DHT22;5977;51.972;7.640;2023-02-02T14:57:02;17.90;91.50
11836;DHT22;5977;51.972;7.640;2023-02-02T14:59:34;17.90;91.50
11836;DHT22;5977;51.972;7.640;2023-02-02T15:02:16;18.10;91.80
11836;DHT22;5977;51.972;7.640;2023-02-02T15:04:45;18.10;91.90
11836;DHT22;5977;51.972;7.640;2023-02-02T15:07:36;18.20;92.50
11836;DHT22;5977;51.972;7.640;2023-02-02T15:10:08;18.10;92.80
11836;DHT22;5977;51.972;7.640;2023-02-02T15:12:40;18.20;93.40
11836;DHT22;5977;51.972;7.640;2023-02-02T15:18:02;18.10;99.30
11836;DHT22;5977;51.972;7.640;2023-02-02T15:20:35;18.30;98.00
11836;DHT22;5977;51.972;7.640;2023-02-02T15:23:17;18.30;96.90
11836;DHT22;5977;51.972;7.640;2023-02-02T15:25:51;18.30;94.30
11836;DHT22;5977;51.972;7.640;2023-02-02T15:28:24;18.30;93.90
11836;DHT22;5977;51.972;7.640;2023-02-02T15:30:55;18.20;93.80
11836;DHT22;5977;51.972;7.640;2023-02-02T15:33:28;18.30;93.50
11836;DHT22;5977;51.972;7.640;2023-02-02T15:35:58;18.30;93.50
11836;DHT22;5977;51.972;7.640;2023-02-02T15:38:32;18.20;93.50
11836;DHT22;5977;51.972;7.640;2023-02-02T15:41:05;18.00;93.40
11836;DHT22;5977;51.972;7.640;2023-02-02T15:43:35;17.90;93.20
11836;DHT22;5977;51.972;7.640;2023-02-02T15:46:05;17.90;93.40
11836;DHT22;5977;51.972;7.640;2023-02-02T15:48:36;18.00;93.10
11836;DHT22;5977;51.972;7.640;2023-02-02T15:51:12;17.90;93.00
11836;DHT22;5977;51.972;7.640;2023-02-02T15:53:46;17.80;92.90
11836;DHT22;5977;51.972;7.640;2023-02-02T15:56:20;17.70;92.80
11836;DHT22;5977;51.972;7.640;2023-02-02T15:58:57;17.60;92.90
11836;DHT22;5977;51.972;7.640;2023-02-02T16:01:26;17.60;93.10
11836;DHT22;5977;51.972;7.640;2023-02-02T16:04:02;17.60;93.30
11836;DHT22;5977;51.972;7.640;2023-02-02T16:06:35;17.50;93.60
11836;DHT22;5977;51.972;7.640;2023-02-02T16:09:06;18.10;93.00
11836;DHT22;5977;51.972;7.640;2023-02-02T16:11:40;17.10;91.70
11836;DHT22;5977;51.972;7.640;2023-02-02T16:14:13;16.60;93.50
11836;DHT22;5977;51.972;7.640;2023-02-02T16:16:43;16.10;95.60
11836;DHT22;5977;51.972;7.640;2023-02-02T16:19:15;15.70;99.90
11836;DHT22;5977;51.972;7.640;2023-02-02T16:21:48;15.60;99.90
11836;DHT22;5977;51.972;7.640;2023-02-02T16:24:22;15.50;99.90
11836;DHT22;5977;51.972;7.640;2023-02-02T16:26:51;15.70;99.90